North Kingsville, Ohio
Current Conditions -  °F | °C
As of 11:12 AM on Thursday 27 Nov 2014 (Local Time) from KHZY Reporting Station
Moderate Snow Moderate Snow  
Wind Chill: 26°   Ceiling: 900
Heat Index: 31°   Visibility: 0.25mi
Dew Point: 29°   Wind: 5mph
Humidity: 92%   Direction: 270°W
Pressure: 30.1"   Gusts: NA
Location:  41.91°N, 80.69°W
Report Text: KHZY 271612Z AUTO 27004KT 1/4SM SN FZFG FEW004 BKN009 OVC016 M01/M02 A3010 RMK AO2 P0003 T10061017
Loading
Personal Weather Stations






























Interactive Weather Map New forecast layout! Learn more

10-Day Weather Forecast

Advertisements
Track Severe Weather on mobile